createdAt,value
2018-06-16T00:00:37.709Z,94620.70
2018-06-16T00:03:07.674Z,94627.87
2018-06-16T00:05:37.510Z,94626.32
2018-06-16T00:08:07.559Z,94624.19
2018-06-16T00:10:37.594Z,94628.73
2018-06-16T00:13:07.410Z,94633.44
2018-06-16T00:15:37.205Z,94629.33
2018-06-16T00:18:06.934Z,94633.86
2018-06-16T00:20:36.476Z,94628.27
2018-06-16T00:23:06.242Z,94625.47
2018-06-16T00:25:36.030Z,94620.56
2018-06-16T00:28:05.980Z,94573.95
2018-06-16T00:30:35.714Z,94619.94
2018-06-16T00:33:05.396Z,94622.05
2018-06-16T00:35:35.177Z,94619.37
2018-06-16T00:38:04.822Z,94619.15
2018-06-16T00:40:34.533Z,94611.99
2018-06-16T00:43:04.321Z,94610.66
2018-06-16T00:45:34.098Z,94613.57
2018-06-16T00:48:03.679Z,94609.86
2018-06-16T00:50:33.504Z,94608.18
2018-06-16T00:53:03.272Z,94612.23
2018-06-16T00:55:32.981Z,94608.09
2018-06-16T00:58:02.709Z,94613.11
2018-06-16T01:00:32.636Z,94607.84
2018-06-16T01:03:02.429Z,94610.86
2018-06-16T01:05:32.261Z,94605.08
2018-06-16T01:08:01.963Z,94604.84
2018-06-16T01:10:31.662Z,94609.31
2018-06-16T01:13:01.774Z,94611.72
2018-06-16T01:15:31.489Z,94605.70
2018-06-16T01:18:01.205Z,94605.84
2018-06-16T01:20:31.047Z,94602.79
2018-06-16T01:23:00.979Z,94606.63
2018-06-16T01:25:30.660Z,94603.73
2018-06-16T01:28:00.488Z,94601.00
2018-06-16T01:30:30.377Z,94610.73
2018-06-16T01:33:00.023Z,94611.16
2018-06-16T01:35:29.800Z,94603.56
2018-06-16T01:37:59.517Z,94373.93
2018-06-16T01:40:29.272Z,94606.95
2018-06-16T01:42:58.926Z,94611.08
2018-06-16T01:45:28.622Z,94617.58
2018-06-16T01:47:58.342Z,94616.92
2018-06-16T01:50:28.048Z,94616.85
2018-06-16T01:52:57.781Z,94605.16
2018-06-16T01:55:27.545Z,94596.63
2018-06-16T01:57:57.433Z,94600.98
2018-06-16T02:00:27.161Z,94607.19
2018-06-16T02:02:57.004Z,94601.11
2018-06-16T02:05:26.750Z,94594.88
2018-06-16T02:07:56.531Z,94592.26
2018-06-16T02:10:26.305Z,94596.30
2018-06-16T02:12:56.074Z,94595.39
2018-06-16T02:15:25.904Z,94603.70
2018-06-16T02:17:55.682Z,94612.25
2018-06-16T02:20:25.511Z,94607.03
2018-06-16T02:22:55.213Z,94601.67
2018-06-16T02:25:24.975Z,94597.97
2018-06-16T02:27:54.816Z,94608.27
2018-06-16T02:30:24.525Z,94604.27
2018-06-16T02:32:54.247Z,94605.08
2018-06-16T02:35:24.028Z,94610.77
2018-06-16T02:37:54.109Z,94609.77
2018-06-16T02:40:23.852Z,94603.50
2018-06-16T02:42:53.636Z,94606.72
2018-06-16T02:45:23.360Z,94606.69
2018-06-16T02:47:53.120Z,94618.55
2018-06-16T02:50:22.951Z,94613.94
2018-06-16T02:52:52.812Z,94615.89
2018-06-16T02:55:22.596Z,94611.39
2018-06-16T02:57:52.448Z,94618.27
2018-06-16T03:00:22.237Z,94625.75
2018-06-16T03:02:51.935Z,94416.20
2018-06-16T03:05:21.653Z,94625.76
2018-06-16T03:07:51.362Z,94625.97
2018-06-16T03:10:21.201Z,94624.84
2018-06-16T03:12:50.930Z,94629.41
2018-06-16T03:15:20.707Z,94626.05
2018-06-16T03:21:22.862Z,94625.93
2018-06-16T03:23:52.646Z,94624.25
2018-06-16T03:26:22.494Z,94623.06
2018-06-16T03:34:42.414Z,94618.00
2018-06-16T03:37:12.009Z,94622.98
2018-06-16T03:39:42.094Z,94626.24
2018-06-16T03:42:12.879Z,94633.73
2018-06-16T03:44:42.645Z,94633.02
2018-06-16T03:47:12.347Z,94642.66
2018-06-16T03:49:42.109Z,94634.07
2018-06-16T03:52:11.867Z,94644.09
2018-06-16T03:54:41.816Z,94640.09
2018-06-16T03:57:11.604Z,94635.20
2018-06-16T03:59:41.479Z,94633.28
2018-06-16T04:02:11.301Z,94638.25
2018-06-16T04:04:41.006Z,94636.27
2018-06-16T04:07:10.767Z,94639.05
2018-06-16T04:09:40.522Z,94641.47
2018-06-16T04:12:10.256Z,94647.67
2018-06-16T04:14:39.965Z,94649.19
2018-06-16T04:17:16.965Z,94654.31
2018-06-16T04:19:46.792Z,94650.77
2018-06-16T04:22:17.085Z,94655.00
2018-06-16T04:24:46.933Z,94656.98
2018-06-16T04:27:16.609Z,94656.00
2018-06-16T04:29:46.285Z,94663.52
2018-06-16T04:32:16.330Z,94665.52
2018-06-16T04:34:46.156Z,94663.88
2018-06-16T04:37:15.895Z,94666.68
2018-06-16T04:39:45.685Z,94670.02
2018-06-16T04:42:15.385Z,94672.69
2018-06-16T04:44:45.129Z,94670.59
2018-06-16T04:47:14.874Z,94676.11
2018-06-16T04:49:44.545Z,94679.30
2018-06-16T04:52:15.052Z,94679.37
2018-06-16T04:54:45.416Z,94688.81
2018-06-16T04:57:15.084Z,94680.48
2018-06-16T04:59:44.816Z,94686.48
2018-06-16T05:02:14.556Z,94688.72
2018-06-16T05:04:44.243Z,94695.20
2018-06-16T05:07:13.965Z,94699.89
2018-06-16T05:09:43.668Z,94698.11
2018-06-16T05:12:13.322Z,94702.34
2018-06-16T05:14:42.965Z,94704.37
2018-06-16T05:17:12.621Z,94707.24
2018-06-16T05:19:42.390Z,94711.20
2018-06-16T05:22:11.984Z,94703.58
2018-06-16T05:24:41.760Z,94712.84
2018-06-16T05:27:11.571Z,94713.72
2018-06-16T05:29:41.309Z,94711.73
2018-06-16T05:32:11.063Z,94718.45
2018-06-16T05:34:40.878Z,94720.95
2018-06-16T05:37:10.609Z,94720.13
2018-06-16T05:39:40.131Z,94719.66
2018-06-16T05:42:09.873Z,94721.75
2018-06-16T05:44:39.481Z,94720.48
2018-06-16T05:47:09.192Z,94722.05
2018-06-16T05:49:38.928Z,94711.35
2018-06-16T05:52:08.720Z,94709.29
2018-06-16T05:54:38.443Z,94708.77
2018-06-16T05:57:08.128Z,94713.53
2018-06-16T05:59:37.827Z,94710.47
2018-06-16T06:02:07.597Z,94711.15
2018-06-16T06:04:37.398Z,94704.84
2018-06-16T06:07:07.234Z,94697.86
2018-06-16T06:09:37.088Z,94691.67
2018-06-16T06:12:06.896Z,94695.67
2018-06-16T06:14:36.566Z,94699.17
2018-06-16T06:17:06.850Z,94702.23
2018-06-16T06:19:36.679Z,94702.19
2018-06-16T06:22:06.599Z,94701.48
2018-06-16T06:24:36.416Z,94701.67
2018-06-16T06:27:06.244Z,94700.19
2018-06-16T06:29:36.023Z,94702.85
2018-06-16T06:32:05.738Z,94697.10
2018-06-16T06:34:35.499Z,94703.22
2018-06-16T06:37:05.486Z,94703.50
2018-06-16T06:39:35.534Z,94701.84
2018-06-16T06:42:05.309Z,94697.95
2018-06-16T06:44:35.291Z,94701.02
2018-06-16T06:47:05.166Z,94699.49
2018-06-16T06:49:34.796Z,94698.00
2018-06-16T06:52:04.590Z,94696.34
2018-06-16T06:54:34.998Z,94695.63
2018-06-16T06:57:04.786Z,94687.90
2018-06-16T06:59:35.738Z,94681.67
2018-06-16T07:02:05.859Z,94684.77
2018-06-16T07:04:35.636Z,94679.47
2018-06-16T07:07:07.083Z,94677.09
2018-06-16T07:09:36.816Z,94679.83
2018-06-16T07:12:08.091Z,94682.61
2018-06-16T07:14:38.328Z,94680.22
2018-06-16T07:17:08.134Z,94674.27
2018-06-16T07:19:37.991Z,94684.73
2018-06-16T07:22:08.263Z,94677.66
2018-06-16T07:24:38.157Z,94675.67
2018-06-16T07:27:07.957Z,94676.00
2018-06-16T07:29:37.724Z,94662.34
2018-06-16T07:32:07.496Z,94664.37
2018-06-16T07:34:37.151Z,94665.15
2018-06-16T07:37:07.517Z,94654.14
2018-06-16T07:39:37.250Z,94654.78
2018-06-16T07:42:07.016Z,94647.83
2018-06-16T07:44:36.621Z,94647.10
2018-06-16T07:47:06.472Z,94644.32
2018-06-16T07:49:36.236Z,94640.54
2018-06-16T07:52:05.950Z,94645.39
2018-06-16T07:54:35.892Z,94648.86
2018-06-16T07:57:05.606Z,94641.28
2018-06-16T07:59:35.294Z,94641.47
2018-06-16T08:02:05.055Z,94640.48
2018-06-16T08:04:34.821Z,94639.56
2018-06-16T08:07:04.653Z,94639.19
2018-06-16T08:09:34.493Z,94638.38
2018-06-16T08:12:04.999Z,94636.05
2018-06-16T08:14:34.783Z,94633.74
2018-06-16T08:17:05.140Z,94636.63
2018-06-16T08:19:34.835Z,94642.00
2018-06-16T08:22:05.798Z,94637.55
2018-06-16T08:24:35.600Z,94634.74
2018-06-16T08:27:05.431Z,94636.66
2018-06-16T08:29:35.685Z,94631.52
2018-06-16T08:32:08.942Z,94626.69
2018-06-16T08:34:38.619Z,94630.49
2018-06-16T08:37:08.392Z,94627.47
2018-06-16T08:39:38.233Z,94624.84
2018-06-16T08:42:09.923Z,94620.89
2018-06-16T08:44:39.656Z,94613.75
2018-06-16T08:47:09.531Z,94625.47
2018-06-16T08:49:39.236Z,94629.94
2018-06-16T08:52:09.065Z,94631.82
2018-06-16T08:54:38.865Z,94628.80
2018-06-16T08:57:08.726Z,94628.41
2018-06-16T08:59:38.468Z,94625.23
2018-06-16T09:02:08.188Z,94622.19
2018-06-16T09:04:37.871Z,94620.89
2018-06-16T09:07:07.557Z,94616.04
2018-06-16T09:09:37.235Z,94621.94
2018-06-16T09:12:07.054Z,94620.51
2018-06-16T09:14:36.737Z,94614.75
2018-06-16T09:17:06.492Z,94613.28
2018-06-16T09:19:36.232Z,94614.31
2018-06-16T09:22:05.906Z,94619.46
2018-06-16T09:24:35.595Z,94612.31
2018-06-16T09:27:05.827Z,94612.14
2018-06-16T09:29:35.540Z,94620.11
2018-06-16T09:32:05.229Z,94621.78
2018-06-16T09:34:35.103Z,94620.34
2018-06-16T09:37:04.748Z,94621.55
2018-06-16T09:39:34.578Z,94623.03
2018-06-16T09:42:04.834Z,94618.72
2018-06-16T09:44:34.551Z,94622.64
2018-06-16T09:47:04.298Z,94617.59
2018-06-16T09:49:33.969Z,94610.75
2018-06-16T09:52:03.708Z,94612.68
2018-06-16T09:54:33.389Z,94612.58
2018-06-16T09:57:03.160Z,94618.12
2018-06-16T09:59:32.849Z,94620.49
2018-06-16T10:02:02.521Z,94621.63
2018-06-16T10:04:32.282Z,94621.62
2018-06-16T10:07:02.214Z,94618.31
2018-06-16T10:09:31.945Z,94608.81
2018-06-16T10:12:01.828Z,94617.00
2018-06-16T10:14:31.582Z,94619.75
2018-06-16T10:17:01.241Z,94621.28
2018-06-16T10:19:31.005Z,94617.14
2018-06-16T10:22:00.766Z,94613.50
2018-06-16T10:24:30.443Z,94614.87
2018-06-16T10:27:00.195Z,94624.03
2018-06-16T10:29:30.055Z,94630.56
2018-06-16T10:31:59.726Z,94624.16
2018-06-16T10:34:29.220Z,94628.30
2018-06-16T10:36:58.938Z,94633.00
2018-06-16T10:39:28.667Z,94634.72
2018-06-16T10:41:58.344Z,94626.90
2018-06-16T10:44:28.395Z,94625.57
2018-06-16T10:46:58.035Z,94622.40
2018-06-16T10:49:27.736Z,94617.21
2018-06-16T10:51:57.446Z,94610.01
2018-06-16T10:54:27.860Z,94609.25
2018-06-16T10:56:57.621Z,94604.42
2018-06-16T10:59:27.456Z,94604.58
2018-06-16T11:01:57.139Z,94605.36
2018-06-16T11:04:26.740Z,94609.78
2018-06-16T11:07:00.098Z,94610.55
2018-06-16T11:09:29.997Z,94610.88
2018-06-16T11:11:59.684Z,94617.88
2018-06-16T11:14:29.417Z,94620.86
2018-06-16T11:16:59.252Z,94615.16
2018-06-16T11:19:29.040Z,94617.99
2018-06-16T11:21:58.944Z,94612.44
2018-06-16T11:24:28.672Z,94607.48
2018-06-16T11:26:58.395Z,94613.20
2018-06-16T11:29:28.127Z,94608.09
2018-06-16T11:31:57.897Z,94604.80
2018-06-16T11:34:27.670Z,94605.79
2018-06-16T11:36:57.479Z,94606.31
2018-06-16T11:39:27.294Z,94602.97
2018-06-16T11:41:56.931Z,94608.73
2018-06-16T11:44:26.881Z,94612.23
2018-06-16T11:47:02.181Z,94607.56
2018-06-16T11:49:39.791Z,94614.39
2018-06-16T11:52:15.015Z,94621.47
2018-06-16T11:54:55.926Z,94624.08
2018-06-16T11:57:25.707Z,94620.95
2018-06-16T11:59:55.481Z,94631.17
2018-06-16T12:02:25.408Z,94630.99
2018-06-16T12:04:55.834Z,94630.27
2018-06-16T12:07:28.724Z,94642.25
2018-06-16T12:09:58.676Z,94659.58
2018-06-16T12:12:29.291Z,94657.78
2018-06-16T12:14:59.170Z,94660.10
2018-06-16T12:17:28.957Z,94665.91
2018-06-16T12:19:58.738Z,94668.36
2018-06-16T12:22:28.533Z,94671.28
2018-06-16T12:24:58.815Z,94673.98
2018-06-16T12:27:28.894Z,94684.20
2018-06-16T12:30:06.924Z,94681.39
2018-06-16T12:32:38.169Z,94683.13
2018-06-16T12:35:07.758Z,94678.52
2018-06-16T12:37:37.470Z,94681.71
2018-06-16T12:40:07.237Z,94687.63
2018-06-16T12:42:38.555Z,94674.61
2018-06-16T12:45:08.435Z,94680.83
2018-06-16T12:47:38.422Z,94682.28
2018-06-16T12:50:08.469Z,94675.75
2018-06-16T12:52:38.999Z,94675.93
2018-06-16T12:55:08.854Z,94675.57
2018-06-16T12:57:39.622Z,94684.09
2018-06-16T13:00:09.391Z,94681.97
2018-06-16T13:02:40.112Z,94683.70
2018-06-16T13:05:21.501Z,94680.70
2018-06-16T13:07:54.524Z,94685.97
2018-06-16T13:10:24.642Z,94685.59
2018-06-16T13:12:55.062Z,94692.36
2018-06-16T13:15:24.805Z,94691.80
2018-06-16T13:24:47.627Z,94680.59
2018-06-16T13:30:02.749Z,94671.95
2018-06-16T13:32:32.437Z,94672.64
2018-06-16T13:35:06.538Z,94676.22
2018-06-16T13:37:37.598Z,94676.80
2018-06-16T13:40:07.401Z,94681.70
2018-06-16T13:42:37.502Z,94680.02
2018-06-16T13:45:07.486Z,94677.28
2018-06-16T13:47:37.250Z,94676.30
2018-06-16T13:50:07.445Z,94674.02
2018-06-16T13:52:37.216Z,94670.28
2018-06-16T13:55:07.033Z,94675.16
2018-06-16T13:57:44.098Z,94676.02
2018-06-16T14:00:14.332Z,94671.95
2018-06-16T14:02:44.145Z,94666.49
2018-06-16T14:05:14.700Z,94673.23
2018-06-16T14:07:44.443Z,94667.23
2018-06-16T14:10:15.442Z,94664.01
2018-06-16T14:12:47.042Z,94655.39
2018-06-16T14:15:17.712Z,94664.25
2018-06-16T14:17:47.886Z,94659.22
2018-06-16T14:20:17.832Z,94661.08
2018-06-16T14:22:48.527Z,94665.42
2018-06-16T14:25:18.816Z,94661.30
2018-06-16T14:27:48.653Z,94661.47
2018-06-16T14:30:20.923Z,94661.98
2018-06-16T14:32:50.763Z,94665.23
2018-06-16T14:38:09.458Z,94667.56
2018-06-16T14:40:40.529Z,94668.28
2018-06-16T14:43:10.299Z,94671.34
2018-06-16T14:45:40.082Z,94672.19
2018-06-16T14:48:10.011Z,94665.13
2018-06-16T14:50:40.618Z,94670.48
2018-06-16T14:53:10.385Z,94654.12
2018-06-16T14:55:40.141Z,94658.49
2018-06-16T14:58:09.980Z,94656.95
2018-06-16T15:00:39.768Z,94655.66
2018-06-16T15:03:09.760Z,94650.58
2018-06-16T15:05:39.526Z,94655.88
2018-06-16T15:08:09.304Z,94658.77
2018-06-16T15:10:39.067Z,94653.34
2018-06-16T15:13:09.605Z,94663.20
2018-06-16T15:18:30.901Z,94670.98
2018-06-16T15:21:04.611Z,94677.53
2018-06-16T15:23:35.185Z,94677.77
2018-06-16T15:26:04.990Z,94678.94
2018-06-16T15:28:35.197Z,94680.42
2018-06-16T15:31:05.780Z,94670.52
2018-06-16T15:33:36.460Z,94664.23
2018-06-16T15:36:06.256Z,94669.17
2018-06-16T15:38:36.035Z,94673.75
2018-06-16T15:41:07.516Z,94677.23
2018-06-16T15:43:37.230Z,94673.36
2018-06-16T15:46:07.032Z,94670.67
2018-06-16T15:48:36.895Z,94675.76
2018-06-16T15:51:07.773Z,94673.62
2018-06-16T15:53:37.463Z,94683.03
2018-06-16T15:56:07.415Z,94674.45
2018-06-16T15:58:37.551Z,94671.70
2018-06-16T16:01:09.397Z,94676.81
2018-06-16T16:03:39.110Z,94673.33
2018-06-16T16:06:08.912Z,94675.34
2018-06-16T16:08:38.645Z,94679.67
2018-06-16T16:11:09.709Z,94683.45
2018-06-16T16:13:40.707Z,94681.78
2018-06-16T16:16:10.522Z,94682.16
2018-06-16T16:18:40.289Z,94677.56
2018-06-16T16:21:10.576Z,94672.66
2018-06-16T16:23:46.122Z,94443.38
2018-06-16T16:26:16.116Z,94672.86
2018-06-16T16:28:45.841Z,94683.72
2018-06-16T16:31:16.690Z,94690.77
2018-06-16T16:33:46.561Z,94691.13
2018-06-16T16:36:16.365Z,94694.19
2018-06-16T16:38:46.158Z,94689.50
2018-06-16T16:41:16.508Z,94683.08
2018-06-16T16:43:47.346Z,94686.73
2018-06-16T16:46:16.968Z,94680.80
2018-06-16T16:48:47.436Z,94673.11
2018-06-16T16:51:18.979Z,94671.29
2018-06-16T16:53:51.685Z,94675.62
2018-06-16T16:56:25.647Z,94681.16
2018-06-16T16:58:55.482Z,94680.85
2018-06-16T17:01:26.371Z,94676.69
2018-06-16T17:03:58.337Z,94677.91
2018-06-16T17:09:13.144Z,94688.19
2018-06-16T17:18:33.479Z,94709.02
2018-06-16T17:21:12.167Z,94712.73
2018-06-16T17:23:58.477Z,94718.28
2018-06-16T17:27:11.056Z,94709.94
2018-06-16T17:29:51.960Z,94710.42
2018-06-16T17:32:21.734Z,94715.62
2018-06-16T17:34:51.535Z,94710.57
2018-06-16T17:37:21.261Z,94716.66
2018-06-16T17:39:51.668Z,94717.94
2018-06-16T17:42:21.614Z,94712.97
2018-06-16T17:44:51.268Z,94720.48
2018-06-16T17:47:21.046Z,94722.08
2018-06-16T17:49:50.880Z,94718.47
2018-06-16T17:52:20.906Z,94725.73
2018-06-16T17:54:50.784Z,94727.08
2018-06-16T17:57:20.541Z,94725.58
2018-06-16T17:59:50.445Z,94718.66
2018-06-16T18:02:20.136Z,94726.15
2018-06-16T18:04:49.758Z,94731.20
2018-06-16T18:07:20.581Z,94738.87
2018-06-16T18:09:53.543Z,94739.64
2018-06-16T18:12:23.378Z,94756.52
2018-06-16T18:14:53.089Z,94755.05
2018-06-16T18:17:22.948Z,94760.34
2018-06-16T18:19:53.413Z,94752.55
2018-06-16T18:22:23.138Z,94749.84
2018-06-16T18:24:53.060Z,94754.72
2018-06-16T18:27:22.790Z,94763.61
2018-06-16T18:29:53.185Z,94766.36
2018-06-16T18:32:22.962Z,94780.91
2018-06-16T18:34:52.729Z,94796.33
2018-06-16T18:37:22.367Z,94801.33
2018-06-16T18:39:52.425Z,94804.55
2018-06-16T18:42:22.110Z,94802.73
2018-06-16T18:44:51.916Z,94802.53
2018-06-16T18:47:21.781Z,94794.96
2018-06-16T18:49:51.642Z,94803.31
2018-06-16T18:52:21.445Z,94807.91
2018-06-16T18:54:51.798Z,94810.81
2018-06-16T18:57:21.713Z,94800.36
2018-06-16T18:59:51.437Z,94793.98
2018-06-16T19:02:21.203Z,94792.95
2018-06-16T19:04:50.953Z,94801.31
2018-06-16T19:07:20.555Z,94798.08
2018-06-16T19:09:50.289Z,94810.13
2018-06-16T19:13:44.279Z,94811.32
2018-06-16T19:16:13.915Z,94820.31
2018-06-16T19:18:43.560Z,94829.17
2018-06-16T19:21:13.245Z,94832.67
2018-06-16T19:23:43.041Z,94835.36
2018-06-16T19:26:12.894Z,94827.28
2018-06-16T19:28:42.635Z,94834.42
2018-06-16T19:31:12.286Z,94839.27
2018-06-16T19:33:42.179Z,94837.75
2018-06-16T19:36:11.775Z,94832.66
2018-06-16T19:38:41.564Z,94837.90
2018-06-16T19:41:11.339Z,94847.35
2018-06-16T19:43:40.911Z,94834.91
2018-06-16T19:46:10.709Z,94841.29
2018-06-16T19:48:40.457Z,94845.24
2018-06-16T19:51:10.075Z,94850.83
2018-06-16T19:53:39.824Z,94835.35
2018-06-16T19:56:09.857Z,94834.26
2018-06-16T19:58:40.698Z,94842.53
2018-06-16T20:01:10.410Z,94846.20
2018-06-16T20:03:40.148Z,94850.80
2018-06-16T20:06:09.979Z,94841.95
2018-06-16T20:08:40.580Z,94844.66
2018-06-16T20:11:10.244Z,94827.40
2018-06-16T20:13:39.900Z,94832.96
2018-06-16T20:16:10.696Z,94838.03
2018-06-16T20:18:41.572Z,94837.50
2018-06-16T20:21:11.176Z,94845.48
2018-06-16T20:23:40.974Z,94845.31
2018-06-16T20:26:10.567Z,94848.83
2018-06-16T20:28:40.221Z,94850.94
2018-06-16T20:31:10.199Z,94854.41
2018-06-16T20:33:39.783Z,94852.96
2018-06-16T20:36:09.481Z,94841.39
2018-06-16T20:38:39.112Z,94844.98
2018-06-16T20:41:08.864Z,94851.94
2018-06-16T20:43:38.530Z,94850.03
2018-06-16T20:46:08.380Z,94851.84
2018-06-16T20:48:37.885Z,94855.87
2018-06-16T20:51:07.663Z,94852.83
2018-06-16T20:53:37.740Z,94855.75
2018-06-16T20:56:07.811Z,94853.89
2018-06-16T20:58:38.087Z,94851.67
2018-06-16T21:01:07.908Z,94847.20
2018-06-16T21:03:37.652Z,94840.70
2018-06-16T21:06:07.519Z,94842.20
2018-06-16T21:08:37.292Z,94842.38
2018-06-16T21:11:07.047Z,94848.71
2018-06-16T21:13:36.835Z,94854.67
2018-06-16T21:16:06.669Z,94854.97
2018-06-16T21:18:36.336Z,94852.72
2018-06-16T21:21:06.142Z,94846.11
2018-06-16T21:23:35.872Z,94851.44
2018-06-16T21:26:05.566Z,94846.81
2018-06-16T21:28:35.244Z,94855.70
2018-06-16T21:31:04.857Z,94854.55
2018-06-16T21:33:34.570Z,94851.38
2018-06-16T21:36:04.208Z,94844.77
2018-06-16T21:38:33.860Z,94838.27
2018-06-16T21:41:03.625Z,94841.78
2018-06-16T21:43:33.544Z,94840.87
2018-06-16T21:46:03.235Z,94835.47
2018-06-16T21:48:32.911Z,94826.95
2018-06-16T21:51:02.707Z,94820.20
2018-06-16T21:53:32.435Z,94817.81
2018-06-16T21:56:02.173Z,94821.68
2018-06-16T21:58:31.859Z,94821.25
2018-06-16T22:01:01.937Z,94830.30
2018-06-16T22:03:31.707Z,94828.45
2018-06-16T22:06:01.483Z,94830.03
2018-06-16T22:08:32.762Z,94828.80
2018-06-16T22:11:04.271Z,94832.78
2018-06-16T22:13:33.860Z,94829.67
2018-06-16T22:16:03.645Z,94834.68
2018-06-16T22:18:34.135Z,94842.73
2018-06-16T22:21:03.944Z,94842.27
2018-06-16T22:23:33.743Z,94846.72
2018-06-16T22:26:03.519Z,94847.63
2018-06-16T22:28:33.183Z,94838.66
2018-06-16T22:31:02.953Z,94842.50
2018-06-16T22:33:32.715Z,94841.86
2018-06-16T22:36:02.374Z,94834.13
2018-06-16T22:38:32.123Z,94838.37
2018-06-16T22:41:01.918Z,94841.73
2018-06-16T22:43:31.683Z,94842.69
2018-06-16T22:46:01.435Z,94845.65
2018-06-16T22:48:31.011Z,94845.62
2018-06-16T22:51:00.770Z,94839.95
2018-06-16T22:53:30.542Z,94836.14
2018-06-16T22:56:00.123Z,94835.56
2018-06-16T22:58:29.679Z,94834.68
2018-06-16T23:00:59.254Z,94832.42
2018-06-16T23:03:28.871Z,94831.20
2018-06-16T23:05:58.511Z,94836.48
2018-06-16T23:08:28.262Z,94838.29
2018-06-16T23:10:58.015Z,94845.45
2018-06-16T23:13:27.773Z,94840.42
2018-06-16T23:15:57.555Z,94836.05
2018-06-16T23:18:27.343Z,94832.66
2018-06-16T23:20:57.225Z,94833.13
2018-06-16T23:23:27.019Z,94832.09
2018-06-16T23:25:56.677Z,94834.64
2018-06-16T23:28:26.441Z,94834.33
2018-06-16T23:30:56.221Z,94827.97
2018-06-16T23:33:26.122Z,94829.30
2018-06-16T23:35:56.151Z,94831.02
2018-06-16T23:38:25.977Z,94830.78
2018-06-16T23:40:55.744Z,94827.84
2018-06-16T23:43:25.504Z,94829.70
2018-06-16T23:45:55.143Z,94828.13
2018-06-16T23:48:24.908Z,94832.78
2018-06-16T23:50:55.078Z,94844.80
2018-06-16T23:53:24.655Z,94845.95
2018-06-16T23:55:54.420Z,94853.13
2018-06-16T23:58:24.124Z,94860.03
